createdAt,value
2022-08-20T00:05:52.069Z,100103.53
2022-08-20T00:16:01.007Z,100108.72
2022-08-20T00:26:06.897Z,100107.75
2022-08-20T00:36:12.236Z,100100.28
2022-08-20T00:46:22.394Z,100110.63
2022-08-20T00:56:36.266Z,100123.47
2022-08-20T01:06:42.586Z,100122.69
2022-08-20T01:16:49.227Z,100132.22
2022-08-20T01:26:55.413Z,100148.47
2022-08-20T01:36:59.811Z,100143.28
2022-08-20T01:47:16.006Z,100155.28
2022-08-20T01:57:22.701Z,100151.81
2022-08-20T02:07:28.266Z,100166.56
2022-08-20T02:17:32.126Z,100164.94
2022-08-20T02:27:38.269Z,100183.84
2022-08-20T02:37:43.937Z,100179.38
2022-08-20T02:47:49.518Z,100181.06
2022-08-20T02:57:55.210Z,100201.72
2022-08-20T03:08:04.855Z,100193.94
2022-08-20T03:18:08.922Z,100191.41
2022-08-20T03:28:14.643Z,100193.16
2022-08-20T03:38:21.487Z,100194.09
2022-08-20T03:48:38.447Z,100181.25
2022-08-20T03:58:42.126Z,100183.84
2022-08-20T04:08:47.243Z,100196.81
2022-08-20T04:18:56.038Z,100206.28
2022-08-20T04:29:07.349Z,100204.66
2022-08-20T04:39:11.135Z,100208.06
2022-08-20T04:49:16.443Z,100204.56
2022-08-20T04:59:20.147Z,100223.56
2022-08-20T05:09:25.295Z,100228.66
2022-08-20T05:19:29.836Z,100236.28
2022-08-20T05:29:34.923Z,100237.91
2022-08-20T05:39:38.824Z,100251.63
2022-08-20T05:49:46.309Z,100264.53
2022-08-20T05:59:50.218Z,100267.88
2022-08-20T06:09:55.267Z,100277.16
2022-08-20T06:19:59.044Z,100272.00
2022-08-20T06:30:06.532Z,100268.41
2022-08-20T06:40:14.556Z,100282.63
2022-08-20T06:50:22.966Z,100279.06
2022-08-20T07:00:28.737Z,100277.38
2022-08-20T07:10:35.519Z,100287.19
2022-08-20T07:20:40.478Z,100274.16
2022-08-20T07:31:04.236Z,100285.56
2022-08-20T07:41:17.478Z,100271.25
2022-08-20T07:51:24.148Z,100288.94
2022-08-20T08:01:41.575Z,100296.22
2022-08-20T08:12:02.859Z,100290.66
2022-08-20T08:22:11.452Z,100300.81
2022-08-20T08:32:16.571Z,100293.47
2022-08-20T08:42:30.182Z,100299.81
2022-08-20T08:52:42.918Z,100289.31
2022-08-20T09:02:59.437Z,100277.69
2022-08-20T09:13:04.808Z,100273.63
2022-08-20T09:23:08.589Z,100264.84
2022-08-20T09:33:13.761Z,100270.75
2022-08-20T09:43:17.497Z,100267.69
2022-08-20T09:53:23.281Z,100263.72
2022-08-20T10:03:27.062Z,100246.44
2022-08-20T10:13:32.185Z,100261.16
2022-08-20T10:23:35.871Z,100262.97
2022-08-20T10:33:42.364Z,100266.25
2022-08-20T10:43:48.826Z,100260.19
2022-08-20T10:53:53.936Z,100238.19
2022-08-20T11:03:57.626Z,100235.28
2022-08-20T11:14:02.718Z,100240.81
2022-08-20T11:24:07.026Z,100236.03
2022-08-20T11:34:12.842Z,100219.13
2022-08-20T11:44:21.251Z,100210.28
2022-08-20T11:54:28.831Z,100214.22
2022-08-20T12:04:33.814Z,100201.63
2022-08-20T12:14:40.514Z,100193.19
2022-08-20T12:24:44.586Z,100182.16
2022-08-20T12:34:51.430Z,100171.16
2022-08-20T12:44:55.239Z,100149.91
2022-08-20T12:55:01.195Z,100144.25
2022-08-20T13:05:06.110Z,100151.09
2022-08-20T13:15:13.138Z,100163.94
2022-08-20T13:25:19.753Z,100145.81
2022-08-20T13:35:25.577Z,100137.38
2022-08-20T13:45:29.350Z,100128.22
2022-08-20T13:55:34.691Z,100122.56
2022-08-20T14:05:42.776Z,100112.97
2022-08-20T14:15:51.242Z,100104.50
2022-08-20T14:25:55.085Z,100113.44
2022-08-20T14:36:00.317Z,100106.13
2022-08-20T14:46:04.246Z,100120.66
2022-08-20T14:56:09.715Z,100133.31
2022-08-20T15:06:22.308Z,100131.03
2022-08-20T15:16:28.218Z,100116.16
2022-08-20T15:26:32.136Z,100119.16
2022-08-20T15:36:37.265Z,100129.22
2022-08-20T15:46:45.505Z,100122.34
2022-08-20T15:57:01.327Z,100118.19
2022-08-20T16:07:15.929Z,100112.53
2022-08-20T16:17:32.062Z,100127.22
2022-08-20T16:27:44.236Z,100130.09
2022-08-20T16:38:01.123Z,100133.88
2022-08-20T16:48:08.267Z,100142.63
2022-08-20T16:58:13.363Z,100161.31
2022-08-20T17:08:22.189Z,100148.47
2022-08-20T17:18:33.886Z,100164.44
2022-08-20T17:28:40.367Z,100176.75
2022-08-20T17:38:51.630Z,100177.78
2022-08-20T17:48:58.472Z,100182.09
2022-08-20T17:59:10.866Z,100204.22
2022-08-20T18:09:24.591Z,100234.63
2022-08-20T18:20:00.605Z,100243.88
2022-08-20T18:30:05.593Z,100256.84
2022-08-20T18:40:27.736Z,100267.16
2022-08-20T18:50:53.141Z,100272.81
2022-08-20T19:01:01.697Z,100291.31
2022-08-20T19:11:27.124Z,100301.19
2022-08-20T19:21:36.347Z,100302.94
2022-08-20T19:31:41.164Z,100311.88
2022-08-20T19:41:51.361Z,100312.94
2022-08-20T19:52:11.641Z,100312.28
2022-08-20T20:02:21.809Z,100319.31
2022-08-20T20:12:26.442Z,100318.47
2022-08-20T20:22:35.560Z,100336.50
2022-08-20T20:32:48.833Z,100321.19
2022-08-20T20:43:05.701Z,100322.97
2022-08-20T20:53:09.703Z,100326.38
2022-08-20T21:03:15.162Z,100327.31
2022-08-20T21:13:18.909Z,100326.47
2022-08-20T21:23:40.214Z,100327.38
2022-08-20T21:33:48.009Z,100334.25
2022-08-20T21:43:53.294Z,100336.81
2022-08-20T21:53:57.105Z,100337.69
2022-08-20T22:04:02.591Z,100342.81
2022-08-20T22:14:09.797Z,100345.41
2022-08-20T22:24:15.285Z,100341.16
2022-08-20T22:34:21.660Z,100333.41
2022-08-20T22:44:28.280Z,100342.81
2022-08-20T22:54:32.063Z,100340.22
2022-08-20T23:04:38.035Z,100358.16
2022-08-20T23:14:42.134Z,100354.66
2022-08-20T23:24:47.377Z,100360.66
2022-08-20T23:34:51.139Z,100361.56
2022-08-20T23:44:56.254Z,100352.13
2022-08-20T23:54:59.997Z,100353.78
